Time;durP1;ratioP1;P1;durP2;ratioP2;P2;SDS_P1;SDS_P2;PMS_P1;PMS_P2;Temp;Humidity;BMP_temperature;BMP_pressure;BME280_temperature;BME280_humidity;BME280_pressure;Samples;Min_cycle;Max_cycle;Signal;HPM_P1;HPM_P2
2021/10/10 00:00:38;;;;;;;166.12;42.13;;;;;;;3.34;59.15;101191.73;1585840;88;21085;-77
2021/10/10 00:03:06;;;;;;;144.32;37.78;;;;;;;3.26;59.04;101192.87;1558229;90;21040;-75
2021/10/10 00:05:38;;;;;;;140.92;36.83;;;;;;;3.22;59.23;101196.29;1540054;91;21084;-79
2021/10/10 00:08:08;;;;;;;118.95;31.12;;;;;;;3.21;59.37;101190.00;1564257;91;21026;-80
2021/10/10 00:10:43;;;;;;;132.57;35.58;;;;;;;3.23;59.42;101193.33;1575103;90;21485;-79
2021/10/10 00:13:11;;;;;;;128.10;33.78;;;;;;;3.24;59.49;101194.17;1566900;90;21092;-78
2021/10/10 00:15:39;;;;;;;119.93;31.62;;;;;;;3.24;59.46;101188.17;1576631;90;21796;-80
2021/10/10 00:18:07;;;;;;;129.15;33.90;;;;;;;3.21;59.43;101189.19;1556915;91;21093;-79
2021/10/10 00:20:35;;;;;;;105.97;31.37;;;;;;;3.16;59.48;101189.33;1575270;90;21047;-78
2021/10/10 00:23:04;;;;;;;117.40;32.90;;;;;;;3.14;59.73;101184.63;1560415;91;21126;-78
2021/10/10 00:25:32;;;;;;;122.62;30.95;;;;;;;3.14;59.90;101189.24;1575208;90;21056;-78
2021/10/10 00:27:59;;;;;;;124.07;32.65;;;;;;;3.13;60.06;101188.43;1582088;89;21576;-81
2021/10/10 00:30:32;;;;;;;115.05;31.48;;;;;;;3.14;60.06;101186.00;1602025;88;21469;-77
2021/10/10 00:33:01;;;;;;;127.40;34.00;;;;;;;3.15;60.08;101190.41;1570260;91;21374;-76
2021/10/10 00:35:30;;;;;;;90.20;27.52;;;;;;;3.16;60.22;101192.58;1570745;91;21033;-79
2021/10/10 00:38:00;;;;;;;102.62;29.60;;;;;;;3.14;60.58;101189.24;1573297;90;21597;-80
2021/10/10 00:40:30;;;;;;;117.70;31.83;;;;;;;3.09;60.93;101188.58;1588341;89;21024;-77
2021/10/10 00:42:56;;;;;;;111.65;32.08;;;;;;;3.12;61.30;101189.48;1571681;90;21570;-79
2021/10/10 00:45:26;;;;;;;101.18;30.75;;;;;;;3.16;61.48;101189.33;1618164;87;21043;-79
2021/10/10 00:47:55;;;;;;;100.15;29.23;;;;;;;3.15;61.62;101186.84;1634906;86;21079;-78
2021/10/10 00:50:24;;;;;;;90.97;27.65;;;;;;;3.15;61.49;101184.95;1619040;87;22154;-80
2021/10/10 00:52:50;;;;;;;88.90;27.62;;;;;;;3.18;61.65;101184.17;1618966;87;21380;-74
2021/10/10 00:55:20;;;;;;;87.62;26.42;;;;;;;3.22;61.83;101176.70;1619368;87;21531;-79
2021/10/10 00:57:50;;;;;;;68.07;25.60;;;;;;;3.26;61.72;101178.41;1551237;91;21066;-77
2021/10/10 01:00:24;;;;;;;68.50;24.23;;;;;;;3.30;61.88;101176.89;1577291;90;21108;-75
2021/10/10 01:02:57;;;;;;;73.22;25.08;;;;;;;3.34;61.57;101178.11;1572987;89;21067;-78
2021/10/10 01:05:21;;;;;;;69.40;24.27;;;;;;;3.36;61.74;101178.69;1564010;91;21115;-77
2021/10/10 01:07:47;;;;;;;65.57;20.95;;;;;;;3.39;61.78;101180.97;1573858;91;21015;-75
2021/10/10 01:10:14;;;;;;;61.48;23.00;;;;;;;3.36;61.75;101181.41;1573945;91;21023;-77
2021/10/10 01:12:43;;;;;;;55.95;21.30;;;;;;;3.27;61.84;101185.53;1578679;90;21061;-79
2021/10/10 01:15:12;;;;;;;46.53;20.12;;;;;;;3.20;61.66;101182.06;1623141;86;21084;-77
2021/10/10 01:17:39;;;;;;;59.38;20.52;;;;;;;3.15;61.39;101179.50;1623753;87;21219;-79
2021/10/10 01:20:10;;;;;;;46.98;19.80;;;;;;;3.19;61.54;101178.48;1574705;91;21023;-78
2021/10/10 01:22:42;;;;;;;37.10;17.45;;;;;;;3.22;61.81;101172.61;1576518;90;21064;-76
2021/10/10 01:25:14;;;;;;;43.50;18.57;;;;;;;3.22;61.88;101174.48;1619211;87;21139;-75
2021/10/10 01:27:43;;;;;;;45.98;18.70;;;;;;;3.19;61.80;101172.23;1543180;91;21728;-81
2021/10/10 01:30:12;;;;;;;45.50;18.75;;;;;;;3.25;63.24;101169.94;1540034;92;21140;-80
2021/10/10 01:32:45;;;;;;;48.17;18.65;;;;;;;3.34;63.32;101170.45;1570836;88;21079;-74
2021/10/10 01:35:11;;;;;;;41.15;17.25;;;;;;;3.41;63.18;101170.65;1589404;88;21072;-79
2021/10/10 01:37:42;;;;;;;44.60;17.50;;;;;;;3.48;62.43;101169.75;1561541;91;21072;-80
2021/10/10 01:40:14;;;;;;;43.25;17.85;;;;;;;3.51;61.68;101171.45;1537822;91;21059;-79
2021/10/10 01:42:43;;;;;;;48.40;18.42;;;;;;;3.56;61.28;101169.94;1561873;91;21140;-77
2021/10/10 01:45:17;;;;;;;38.67;18.40;;;;;;;3.59;60.99;101165.37;1566673;91;21481;-74
2021/10/10 01:47:43;;;;;;;;;;;;;;;3.61;60.65;101172.27;1568939;91;21104;-76
2021/10/10 01:50:12;;;;;;;42.23;18.27;;;;;;;3.64;60.36;101170.44;1564574;90;20177;-78
2021/10/10 01:52:46;;;;;;;40.12;20.23;;;;;;;3.63;60.27;101170.13;1558557;91;21109;-79
2021/10/10 01:55:12;;;;;;;;;;;;;;;3.64;60.51;101169.08;1605744;88;21199;-77
2021/10/10 01:57:41;;;;;;;34.75;18.20;;;;;;;3.65;61.04;101165.27;1604229;88;20434;-76
2021/10/10 02:00:12;;;;;;;46.25;22.10;;;;;;;3.68;61.42;101164.52;1587549;88;21116;-79
2021/10/10 02:02:45;;;;;;;42.00;21.37;;;;;;;3.68;61.69;101163.16;1544615;91;21075;-78
2021/10/10 02:05:15;;;;;;;38.78;20.45;;;;;;;3.67;61.86;101166.41;1564404;91;21072;-78
2021/10/10 02:07:48;;;;;;;44.75;20.17;;;;;;;3.71;61.97;101169.50;1564745;90;21200;-76
2021/10/10 02:10:15;;;;;;;46.47;19.53;;;;;;;3.73;61.63;101168.73;1575819;90;21076;-75
2021/10/10 02:12:42;;;;;;;41.60;17.75;;;;;;;3.75;61.22;101167.42;1541318;91;21545;-77
2021/10/10 02:15:09;;;;;;;49.40;18.52;;;;;;;3.79;60.78;101165.63;1577112;90;21063;-79
2021/10/10 02:17:39;;;;;;;30.25;15.80;;;;;;;3.81;60.67;101170.28;1564050;91;21066;-74
2021/10/10 02:20:14;;;;;;;38.65;17.15;;;;;;;3.84;60.42;101172.56;1577230;90;21096;-78
2021/10/10 02:22:42;;;;;;;29.52;15.83;;;;;;;3.84;61.08;101173.38;1563439;91;21108;-78
2021/10/10 02:25:14;;;;;;;31.62;13.35;;;;;;;3.86;61.70;101169.89;1600732;88;21208;-75
2021/10/10 02:27:46;;;;;;;29.20;14.25;;;;;;;3.87;61.71;101168.81;1605080;88;21151;-78
2021/10/10 02:30:19;;;;;;;32.60;13.70;;;;;;;3.88;62.06;101171.02;1618614;88;21040;-77
2021/10/10 02:32:49;;;;;;;25.62;13.98;;;;;;;3.91;62.16;101169.73;1598564;88;21133;-75
2021/10/10 02:35:16;;;;;;;35.55;14.15;;;;;;;3.93;62.06;101169.78;1618629;88;21438;-78
2021/10/10 02:37:48;;;;;;;32.33;12.25;;;;;;;3.94;61.88;101166.53;1595902;88;21084;-76
2021/10/10 02:40:17;;;;;;;23.38;11.78;;;;;;;3.95;61.71;101168.18;1618411;88;22127;-75
2021/10/10 02:42:50;;;;;;;25.08;12.47;;;;;;;3.97;61.35;101168.78;1616065;88;21008;-77
2021/10/10 02:45:22;;;;;;;28.27;12.75;;;;;;;3.98;61.07;101171.27;1618607;87;21087;-77
2021/10/10 02:47:51;;;;;;;27.45;12.23;;;;;;;3.99;61.11;101171.56;1592820;88;21542;-73
2021/10/10 02:50:21;;;;;;;25.40;12.45;;;;;;;3.97;61.48;101173.72;1578661;88;21516;-73
2021/10/10 02:52:55;;;;;;;23.45;10.82;;;;;;;3.98;61.88;101169.06;1612646;88;21101;-75
2021/10/10 02:55:23;;;;;;;24.35;11.78;;;;;;;4.00;62.17;101172.40;1585931;88;21053;-75
2021/10/10 02:57:58;;;;;;;28.77;11.70;;;;;;;4.03;62.32;101175.20;1616865;87;21064;-75
2021/10/10 03:00:29;;;;;;;28.10;12.98;;;;;;;4.03;62.33;101173.29;1621125;87;21399;-78
2021/10/10 03:02:58;;;;;;;26.27;12.13;;;;;;;4.04;62.41;101176.33;1618179;87;21030;-74
2021/10/10 03:05:27;;;;;;;27.30;11.20;;;;;;;4.07;62.33;101170.92;1618288;87;21111;-75
2021/10/10 03:07:58;;;;;;;34.05;12.18;;;;;;;4.08;61.98;101169.32;1617967;88;21076;-77
2021/10/10 03:10:27;;;;;;;30.62;11.00;;;;;;;4.09;61.77;101172.89;1621926;88;21105;-78
2021/10/10 03:12:55;;;;;;;25.12;11.48;;;;;;;4.11;62.03;101172.94;1620599;88;21600;-79
2021/10/10 03:15:22;;;;;;;23.98;11.93;;;;;;;4.16;62.24;101165.95;1620510;88;21121;-77
2021/10/10 03:17:52;;;;;;;24.35;11.12;;;;;;;4.19;62.10;101168.20;1620330;88;21031;-77
2021/10/10 03:20:19;;;;;;;28.32;11.80;;;;;;;4.20;61.88;101166.60;1597054;88;21036;-80
2021/10/10 03:22:48;;;;;;;25.70;10.05;;;;;;;4.24;61.64;101162.87;1621709;88;21546;-78
2021/10/10 03:25:16;;;;;;;29.12;10.05;;;;;;;4.26;61.34;101160.74;1617158;87;21064;-76
2021/10/10 03:27:48;;;;;;;24.05;9.85;;;;;;;4.29;60.47;101161.63;1614483;87;21056;-80
2021/10/10 03:30:18;;;;;;;27.40;10.20;;;;;;;4.32;59.67;101159.78;1592992;88;21115;-77
2021/10/10 03:32:46;;;;;;;20.23;10.28;;;;;;;4.36;59.67;101158.25;1617554;88;21044;-79
2021/10/10 03:35:16;;;;;;;24.00;10.72;;;;;;;4.41;59.30;101152.59;1617642;88;21104;-77
2021/10/10 03:37:45;;;;;;;20.70;10.00;;;;;;;4.45;59.80;101152.42;1616036;88;21064;-80
2021/10/10 03:40:15;;;;;;;26.85;11.00;;;;;;;4.47;60.14;101151.66;1617796;88;21044;-77
2021/10/10 03:42:42;;;;;;;24.07;11.43;;;;;;;4.49;60.16;101150.86;1617812;88;21132;-74
2021/10/10 03:45:13;;;;;;;25.40;11.70;;;;;;;4.51;59.99;101152.83;1597805;88;21057;-78
2021/10/10 03:47:41;;;;;;;30.15;16.02;;;;;;;4.53;60.13;101145.23;1625373;87;21060;-80
2021/10/10 03:50:08;;;;;;;30.43;16.85;;;;;;;4.55;60.04;101147.20;1622534;86;21564;-71
2021/10/10 03:52:43;;;;;;;35.15;15.63;;;;;;;4.56;59.78;101141.17;1599357;88;21081;-78
2021/10/10 03:58:02;;;;;;;25.32;11.38;;;;;;;4.60;59.53;101139.12;1622371;88;21543;-73
2021/10/10 04:00:35;;;;;;;;;;;;;;;4.61;59.27;101139.40;1608664;88;21291;-74
2021/10/10 04:03:05;;;;;;;24.55;11.60;;;;;;;4.63;58.86;101136.43;1619653;87;20172;-76
2021/10/10 04:08:06;;;;;;;35.35;14.33;;;;;;;4.64;58.46;101132.61;1617469;87;21032;-79
2021/10/10 04:10:34;;;;;;;23.80;12.98;;;;;;;4.65;57.97;101132.93;1617394;88;21067;-75
2021/10/10 04:13:11;;;;;;;26.85;13.68;;;;;;;4.67;58.19;101129.95;1617274;88;21115;-77
2021/10/10 04:15:41;;;;;;;22.95;13.68;;;;;;;4.68;58.45;101132.97;1613648;87;21029;-78
2021/10/10 04:18:12;;;;;;;29.20;13.93;;;;;;;4.70;58.62;101131.67;1616817;88;21048;-76
2021/10/10 04:20:39;;;;;;;39.33;15.43;;;;;;;4.71;58.59;101136.05;1617226;87;21063;-79
2021/10/10 04:23:05;;;;;;;36.23;18.07;;;;;;;4.72;58.14;101133.63;1617750;88;21024;-80
2021/10/10 04:25:35;;;;;;;35.65;19.42;;;;;;;4.73;57.68;101130.34;1617458;88;21091;-79
2021/10/10 04:28:06;;;;;;;39.27;19.87;;;;;;;4.69;57.25;101126.45;1616982;88;21016;-80
2021/10/10 04:30:33;;;;;;;44.15;18.98;;;;;;;4.65;57.19;101129.36;1616634;88;21508;-76
2021/10/10 04:33:08;;;;;;;32.30;16.23;;;;;;;4.66;57.73;101129.11;1615643;87;21613;-78
2021/10/10 04:35:35;;;;;;;36.48;15.72;;;;;;;4.70;57.60;101134.41;1602480;89;21028;-78
2021/10/10 04:38:07;;;;;;;32.73;16.12;;;;;;;4.74;57.63;101136.13;1580459;89;21546;-78
2021/10/10 04:40:36;;;;;;;33.48;14.13;;;;;;;4.77;57.52;101137.00;1575881;89;21138;-78
2021/10/10 04:43:07;;;;;;;28.05;13.08;;;;;;;4.81;57.31;101135.43;1602021;89;21086;-78
2021/10/10 04:45:38;;;;;;;25.23;13.50;;;;;;;4.83;57.13;101138.75;1604774;89;21051;-75
2021/10/10 04:48:11;;;;;;;41.80;14.33;;;;;;;4.85;57.00;101132.52;1561205;89;21048;-78
2021/10/10 04:50:46;;;;;;;26.52;13.90;;;;;;;4.90;57.34;101142.72;1601308;89;22120;-78
2021/10/10 04:53:12;;;;;;;34.05;14.60;;;;;;;4.91;57.56;101138.93;1601971;89;21032;-78
2021/10/10 04:55:44;;;;;;;31.48;15.08;;;;;;;4.93;57.79;101135.95;1602192;89;21083;-76
2021/10/10 04:58:12;;;;;;;34.30;15.45;;;;;;;4.93;57.80;101134.03;1601905;89;21055;-78
2021/10/10 05:00:42;;;;;;;31.90;13.85;;;;;;;4.95;58.19;101135.98;1602278;89;21496;-80
2021/10/10 05:03:10;;;;;;;32.35;14.18;;;;;;;4.96;58.25;101133.57;1599630;89;21157;-79
2021/10/10 05:05:47;;;;;;;32.70;14.63;;;;;;;4.99;58.46;101136.34;1605467;89;21539;-76
2021/10/10 05:08:21;;;;;;;32.70;14.60;;;;;;;5.03;58.31;101129.85;1598604;89;21102;-78
2021/10/10 05:10:57;;;;;;;40.20;15.13;;;;;;;5.06;58.02;101135.67;1586411;89;21076;-80
2021/10/10 05:13:27;;;;;;;24.43;12.03;;;;;;;5.10;57.89;101138.75;1591305;89;21020;-78
2021/10/10 05:15:58;;;;;;;28.42;14.30;;;;;;;5.12;57.58;101139.31;1587784;89;21175;-77
2021/10/10 05:18:26;;;;;;;25.37;12.35;;;;;;;5.15;57.40;101138.01;1596534;89;21126;-78
2021/10/10 05:20:54;;;;;;;20.77;12.35;;;;;;;5.19;57.06;101138.64;1590384;89;21028;-81
2021/10/10 05:23:27;;;;;;;75.67;14.20;;;;;;;5.22;56.96;101144.98;1585224;89;21043;-81
2021/10/10 05:26:01;;;;;;;99.77;15.38;;;;;;;5.26;56.90;101141.22;1606446;87;21114;-81
2021/10/10 05:28:32;;;;;;;27.80;10.75;;;;;;;5.30;56.63;101142.93;1598581;89;21068;-78
2021/10/10 05:31:04;;;;;;;23.95;11.12;;;;;;;5.34;56.55;101153.69;1590003;87;21012;-75
2021/10/10 05:33:31;;;;;;;22.62;10.28;;;;;;;5.40;56.77;101154.06;1587411;89;21051;-79
2021/10/10 05:36:01;;;;;;;36.42;11.88;;;;;;;5.44;56.70;101150.30;1564047;90;21020;-78
2021/10/10 05:38:34;;;;;;;30.23;11.45;;;;;;;5.48;56.71;101154.19;1582647;89;21079;-79
2021/10/10 05:41:12;;;;;;;27.58;11.43;;;;;;;5.53;56.75;101157.02;1581172;90;21334;-80
2021/10/10 05:43:46;;;;;;;25.37;10.58;;;;;;;5.56;56.82;101154.34;1579321;88;21024;-72
2021/10/10 05:46:19;;;;;;;25.60;10.60;;;;;;;5.61;56.77;101159.91;1576083;90;21040;-76
2021/10/10 05:48:49;;;;;;;23.98;9.08;;;;;;;5.66;56.65;101160.00;1579898;88;21544;-76
2021/10/10 05:51:17;;;;;;;23.50;10.45;;;;;;;5.70;56.24;101158.41;1579926;90;21071;-79
2021/10/10 05:53:45;;;;;;;20.97;9.55;;;;;;;5.71;56.14;101155.15;1558119;90;21555;-80
2021/10/10 05:56:22;;;;;;;17.02;8.88;;;;;;;5.74;56.10;101162.85;1578926;90;21150;-80
2021/10/10 05:59:09;;;;;;;20.00;10.03;;;;;;;5.78;55.80;101160.45;1574222;90;21000;-77
2021/10/10 06:01:34;;;;;;;23.47;9.90;;;;;;;5.80;55.95;101162.41;1578391;90;21060;-80
2021/10/10 06:04:09;;;;;;;30.27;9.88;;;;;;;5.86;55.89;101165.52;1577069;90;21490;-80
2021/10/10 06:06:39;;;;;;;19.73;10.23;;;;;;;5.91;55.88;101165.60;1576873;90;21662;-79
2021/10/10 06:09:16;;;;;;;21.12;10.15;;;;;;;5.97;55.90;101164.59;1576577;88;21081;-78
2021/10/10 06:11:54;;;;;;;20.65;9.25;;;;;;;6.04;55.89;101162.25;1579195;90;21088;-75
2021/10/10 06:14:22;;;;;;;24.20;11.28;;;;;;;6.08;55.50;101160.16;1578549;90;21587;-79
2021/10/10 06:16:51;;;;;;;28.83;9.65;;;;;;;6.15;55.49;101166.84;1576115;88;21563;-80
2021/10/10 06:19:25;;;;;;;33.63;11.25;;;;;;;6.20;55.41;101165.55;1576985;90;21032;-79
2021/10/10 06:22:03;;;;;;;21.87;9.80;;;;;;;6.26;55.43;101167.80;1574840;90;22121;-74
2021/10/10 06:24:36;;;;;;;31.10;11.18;;;;;;;6.32;55.41;101166.82;1589343;88;21052;-80
2021/10/10 06:27:07;;;;;;;22.70;10.93;;;;;;;6.37;54.87;101163.85;1572939;90;21576;-77
2021/10/10 06:29:37;;;;;;;21.55;10.72;;;;;;;6.40;54.88;101168.29;1575569;90;21661;-78
2021/10/10 06:32:04;;;;;;;25.60;12.55;;;;;;;6.46;54.84;101167.83;1579483;90;21077;-79
2021/10/10 06:34:35;;;;;;;25.52;10.55;;;;;;;6.51;54.71;101166.54;1575041;88;21036;-76
2021/10/10 06:37:08;;;;;;;29.77;11.80;;;;;;;6.57;54.41;101168.26;1601042;88;21115;-80
2021/10/10 06:39:40;;;;;;;32.25;10.10;;;;;;;6.65;54.40;101173.02;1605272;88;21528;-78
2021/10/10 06:42:15;;;;;;;21.43;9.67;;;;;;;6.70;54.21;101167.61;1604223;88;21120;-78
2021/10/10 06:44:56;;;;;;;31.57;10.50;;;;;;;6.76;54.00;101169.86;1604403;88;21092;-78
2021/10/10 06:47:22;;;;;;;24.05;9.83;;;;;;;6.76;53.22;101170.70;1607804;87;21013;-79
2021/10/10 06:49:53;;;;;;;22.62;10.03;;;;;;;6.70;53.60;101175.27;1553488;91;21118;-77
2021/10/10 06:52:23;;;;;;;18.37;9.83;;;;;;;6.75;53.55;101169.58;1561627;91;21051;-78
2021/10/10 06:54:59;;;;;;;25.82;10.72;;;;;;;6.81;53.55;101168.03;1559218;91;21504;-76
2021/10/10 06:57:37;;;;;;;23.00;10.40;;;;;;;6.89;53.31;101170.85;1561047;91;20992;-78
2021/10/10 07:00:09;;;;;;;26.80;10.20;;;;;;;6.94;53.12;101169.55;1575224;90;21496;-77
2021/10/10 07:02:42;;;;;;;28.85;10.45;;;;;;;7.02;53.34;101169.66;1566962;91;21061;-77
2021/10/10 07:05:19;;;;;;;16.45;8.95;;;;;;;7.14;53.34;101170.05;1565670;91;21058;-76
2021/10/10 07:07:46;;;;;;;26.62;10.30;;;;;;;7.24;53.03;101169.34;1559157;90;21031;-80
2021/10/10 07:10:19;;;;;;;19.90;9.40;;;;;;;7.27;52.23;101173.77;1577148;89;21584;-78
2021/10/10 07:12:46;;;;;;;23.02;10.03;;;;;;;7.33;52.35;101173.30;1604285;88;21028;-77
2021/10/10 07:15:17;;;;;;;20.00;9.50;;;;;;;7.43;52.49;101179.42;1609000;88;21028;-79
2021/10/10 07:17:58;;;;;;;25.15;9.35;;;;;;;7.53;51.81;101173.21;1601540;87;21124;-76
2021/10/10 07:20:31;;;;;;;22.37;9.77;;;;;;;7.58;51.90;101168.31;1602772;88;21060;-78
2021/10/10 07:25:34;;;;;;;27.60;10.60;;;;;;;7.79;51.62;101168.81;1571157;88;21067;-78
2021/10/10 07:28:00;;;;;;;31.77;9.93;;;;;;;7.88;51.14;101171.08;1568390;88;21069;-72
2021/10/10 07:30:38;;;;;;;31.05;10.50;;;;;;;7.95;50.27;101166.17;1598483;88;21544;-79
2021/10/10 07:33:05;;;;;;;25.10;9.78;;;;;;;7.99;50.44;101170.06;1615794;88;21068;-79
2021/10/10 07:35:37;;;;;;;27.90;9.15;;;;;;;8.07;49.89;101164.62;1581195;89;21088;-79
2021/10/10 07:38:15;;;;;;;30.97;9.93;;;;;;;8.11;49.61;101168.50;1603584;88;21126;-78
2021/10/10 07:40:43;;;;;;;24.20;8.70;;;;;;;8.21;49.60;101166.91;1601685;88;21632;-79
2021/10/10 07:43:14;;;;;;;22.02;8.25;;;;;;;8.34;49.52;101165.64;1596613;88;21072;-77
2021/10/10 07:45:47;;;;;;;25.35;9.13;;;;;;;8.46;48.82;101163.50;1584692;88;21100;-80
2021/10/10 07:48:17;;;;;;;21.37;9.13;;;;;;;8.60;48.10;101165.80;1603991;88;22718;-78
2021/10/10 07:50:50;;;;;;;23.10;9.00;;;;;;;8.71;47.80;101164.78;1603574;87;21025;-78
2021/10/10 07:53:18;;;;;;;26.80;8.28;;;;;;;8.84;47.76;101163.47;1585072;88;21075;-79
2021/10/10 07:55:45;;;;;;;23.32;8.80;;;;;;;8.95;47.32;101167.09;1589268;88;21076;-77
2021/10/10 07:58:15;;;;;;;28.67;9.30;;;;;;;9.05;46.47;101157.22;1604208;88;21046;-75
2021/10/10 08:00:50;;;;;;;24.10;8.13;;;;;;;9.13;46.39;101158.06;1603127;88;21051;-80
2021/10/10 08:03:20;;;;;;;25.77;9.43;;;;;;;9.24;46.35;101164.44;1602887;88;21073;-78
2021/10/10 08:05:53;;;;;;;26.17;8.95;;;;;;;9.34;46.28;101163.09;1603988;88;21118;-81
2021/10/10 08:08:26;;;;;;;17.55;7.22;;;;;;;9.48;46.03;101163.37;1597105;88;21044;-78
2021/10/10 08:10:57;;;;;;;26.23;7.62;;;;;;;9.61;45.59;101166.70;1603956;88;21073;-77
2021/10/10 08:13:32;;;;;;;21.45;7.60;;;;;;;9.71;45.34;101163.96;1606289;88;21069;-78
2021/10/10 08:15:58;;;;;;;24.92;8.33;;;;;;;9.82;45.16;101162.05;1585090;88;21229;-75
2021/10/10 08:18:26;;;;;;;26.10;8.00;;;;;;;9.94;45.01;101163.16;1605768;88;21119;-77
2021/10/10 08:20:55;;;;;;;25.20;8.15;;;;;;;10.02;44.20;101158.17;1604477;88;21017;-77
2021/10/10 08:23:26;;;;;;;38.70;12.47;;;;;;;10.06;44.10;101164.25;1608782;88;21064;-78
2021/10/10 08:25:56;;;;;;;27.22;8.53;;;;;;;10.07;43.58;101165.89;1587306;88;21818;-80
2021/10/10 08:28:27;;;;;;;21.12;7.10;;;;;;;10.07;43.73;101170.56;1599250;88;21504;-76
2021/10/10 08:30:55;;;;;;;16.02;6.97;;;;;;;10.16;43.64;101173.05;1604206;88;21044;-79
2021/10/10 08:33:31;;;;;;;23.67;7.40;;;;;;;10.19;43.07;101164.23;1586083;88;21041;-77
2021/10/10 08:36:00;;;;;;;15.48;6.97;;;;;;;10.23;43.20;101168.64;1602751;88;21437;-73
2021/10/10 08:38:34;;;;;;;19.75;8.18;;;;;;;10.33;43.27;101162.28;1603409;88;21169;-79
2021/10/10 08:41:20;;;;;;;17.95;7.42;;;;;;;10.49;43.36;101160.91;1609800;88;21044;-77
2021/10/10 08:43:49;;;;;;;17.52;6.65;;;;;;;10.66;42.78;101162.77;1600458;88;21501;-80
2021/10/10 08:46:28;;;;;;;23.70;7.00;;;;;;;10.78;42.52;101167.16;1606465;88;21064;-78
2021/10/10 08:49:14;;;;;;;16.25;7.60;;;;;;;10.91;42.52;101165.73;1607374;87;21009;-77
2021/10/10 08:51:46;;;;;;;16.05;6.47;;;;;;;11.06;42.48;101166.20;1600022;88;21843;-79
2021/10/10 08:54:14;;;;;;;16.95;7.25;;;;;;;11.20;42.24;101156.22;1601990;88;21052;-77
2021/10/10 08:56:41;;;;;;;19.20;8.30;;;;;;;11.35;42.30;101164.67;1587208;88;21075;-80
2021/10/10 08:59:11;;;;;;;14.90;7.55;;;;;;;11.49;42.50;101164.32;1607205;88;21124;-79
2021/10/10 09:01:43;;;;;;;19.67;7.55;;;;;;;11.66;42.27;101157.02;1602094;88;21183;-78
2021/10/10 09:04:10;;;;;;;16.50;7.87;;;;;;;11.83;41.79;101164.62;1586860;88;21093;-79
2021/10/10 09:06:50;;;;;;;24.72;7.45;;;;;;;11.93;41.66;101158.47;1604588;88;21075;-79
2021/10/10 09:09:31;;;;;;;19.23;8.35;;;;;;;12.03;41.37;101156.72;1605412;88;21144;-77
2021/10/10 09:12:14;;;;;;;21.87;7.72;;;;;;;12.12;41.35;101156.41;1594569;88;21520;-75
2021/10/10 09:14:50;;;;;;;29.03;8.30;;;;;;;12.22;40.98;101156.85;1605270;88;21096;-79
2021/10/10 09:17:20;;;;;;;18.30;7.92;;;;;;;12.30;40.59;101156.77;1604181;88;21557;-78
2021/10/10 09:20:01;;;;;;;17.00;7.83;;;;;;;12.38;40.78;101151.17;1568780;88;21087;-77
2021/10/10 09:22:26;;;;;;;12.10;7.08;;;;;;;12.45;40.41;101146.68;1561441;91;21098;-75
2021/10/10 09:24:55;;;;;;;15.45;7.85;;;;;;;12.48;40.80;101143.33;1538452;91;21610;-77
2021/10/10 09:27:26;;;;;;;17.42;8.08;;;;;;;12.49;40.56;101147.73;1576810;90;21048;-77
2021/10/10 09:30:08;;;;;;;30.32;8.10;;;;;;;12.56;40.36;101144.06;1580108;90;21017;-79
2021/10/10 09:32:44;;;;;;;18.48;7.55;;;;;;;12.65;40.07;101146.45;1558735;90;21103;-77
2021/10/10 09:35:29;;;;;;;23.50;8.05;;;;;;;12.68;39.38;101144.20;1577168;90;21457;-76
2021/10/10 09:38:21;;;;;;;19.57;8.70;;;;;;;12.61;39.13;101139.02;1578120;90;21014;-77
2021/10/10 09:40:47;;;;;;;23.47;8.93;;;;;;;12.49;39.71;101137.50;1574872;90;21112;-77
2021/10/10 09:43:11;;;;;;;37.78;12.03;;;;;;;12.52;40.11;101134.72;1574241;90;21257;-76
2021/10/10 09:45:52;;;;;;;29.30;10.05;;;;;;;12.59;40.30;101135.17;1579063;90;21024;-71
2021/10/10 09:48:08;;;;;;;26.65;9.55;;;;;;;12.70;40.00;101132.29;1578931;90;21126;-77
2021/10/10 09:50:49;;;;;;;26.73;10.95;;;;;;;12.75;40.03;101133.61;1579149;90;21023;-74
2021/10/10 09:53:23;;;;;;;25.40;9.43;;;;;;;12.85;40.01;101132.66;1557209;90;21063;-72
2021/10/10 09:56:04;;;;;;;22.75;9.15;;;;;;;12.89;39.20;101129.02;1577032;90;21111;-78
2021/10/10 09:58:45;;;;;;;33.20;10.38;;;;;;;12.91;39.74;101130.10;1577787;90;21028;-76
2021/10/10 10:01:22;;;;;;;33.85;10.23;;;;;;;13.03;40.00;101125.52;1579015;90;21024;-77
2021/10/10 10:04:05;;;;;;;28.55;8.20;;;;;;;13.14;39.88;101127.02;1576196;90;21039;-78
2021/10/10 10:06:41;;;;;;;18.45;8.68;;;;;;;13.21;39.12;101130.80;1578680;90;21051;-78
2021/10/10 10:09:12;;;;;;;26.68;8.65;;;;;;;13.18;39.29;101127.25;1576208;90;21040;-74
2021/10/10 10:11:55;;;;;;;20.13;5.87;;;;;;;13.15;38.98;101125.88;1574671;90;21075;-80
2021/10/10 10:14:29;;;;;;;10.90;4.70;;;;;;;13.10;38.25;101123.77;1575624;90;21497;-75
2021/10/10 10:17:04;;;;;;;12.13;5.22;;;;;;;13.05;38.41;101121.87;1577219;90;21084;-78
2021/10/10 10:19:31;;;;;;;12.78;5.05;;;;;;;13.05;38.04;101118.30;1576860;90;21036;-74
2021/10/10 10:22:14;;;;;;;12.93;5.75;;;;;;;13.02;37.90;101120.53;1579186;90;21063;-78
2021/10/10 10:24:49;;;;;;;11.75;6.42;;;;;;;12.99;37.67;101117.53;1575338;90;21059;-76
2021/10/10 10:27:19;;;;;;;22.20;8.48;;;;;;;12.93;37.80;101116.77;1579345;90;21107;-77
2021/10/10 10:29:59;;;;;;;25.72;7.95;;;;;;;12.92;37.87;101115.69;1578892;90;21080;-78
2021/10/10 10:32:35;;;;;;;37.78;8.98;;;;;;;12.93;37.71;101111.82;1578870;90;21017;-79
2021/10/10 10:35:13;;;;;;;27.10;7.55;;;;;;;12.99;37.49;101111.45;1580305;90;21036;-78
2021/10/10 10:37:51;;;;;;;14.73;6.85;;;;;;;13.08;37.69;101106.63;1577883;90;21057;-75
2021/10/10 10:40:27;;;;;;;;;;;;;;;13.18;37.78;101102.34;1582701;90;21244;-75
2021/10/10 10:43:00;;;;;;;9.55;5.08;;;;;;;13.33;38.37;101106.81;1577262;90;20171;-77
2021/10/10 10:48:41;;;;;;;18.45;6.30;;;;;;;13.54;37.49;101100.16;1576997;90;21020;-73
2021/10/10 10:51:23;;;;;;;20.88;5.83;;;;;;;13.65;37.44;101103.02;1556384;90;21071;-78
2021/10/10 10:53:49;;;;;;;16.62;6.10;;;;;;;13.75;37.17;101085.39;1578807;90;21067;-79
2021/10/10 10:56:31;;;;;;;17.50;6.27;;;;;;;13.81;37.02;101082.81;1575220;90;21107;-78
2021/10/10 10:59:04;;;;;;;12.43;4.87;;;;;;;13.92;37.58;101087.59;1574758;90;21116;-77
2021/10/10 11:02:01;;;;;;;11.78;3.90;;;;;;;14.01;36.53;101086.33;1581388;88;21327;-77
2021/10/10 11:04:32;;;;;;;11.95;3.90;;;;;;;14.07;36.08;101077.37;1577062;90;21107;-75
2021/10/10 11:07:08;;;;;;;10.25;3.55;;;;;;;14.18;36.43;101080.75;1577507;90;21068;-78
2021/10/10 11:09:44;;;;;;;11.20;4.08;;;;;;;14.27;36.00;101073.38;1559510;90;21119;-72
2021/10/10 11:12:11;;;;;;;38.80;5.35;;;;;;;14.36;36.12;101071.52;1579582;90;21072;-77
2021/10/10 11:14:46;;;;;;;8.23;3.40;;;;;;;14.44;35.99;101067.22;1556843;90;21230;-75
2021/10/10 11:17:20;;;;;;;8.53;4.12;;;;;;;14.53;35.34;101071.48;1576616;90;21536;-73
2021/10/10 11:19:52;;;;;;;8.30;4.65;;;;;;;14.65;36.13;101077.06;1558000;90;21136;-76
2021/10/10 11:22:22;;;;;;;11.18;4.05;;;;;;;14.71;34.77;101061.94;1578796;90;21063;-79
2021/10/10 11:25:00;;;;;;;7.10;4.05;;;;;;;14.73;34.61;101060.52;1559853;90;21537;-77
2021/10/10 11:27:26;;;;;;;9.03;3.85;;;;;;;14.79;34.49;101053.47;1577048;89;21970;-78
2021/10/10 11:29:56;;;;;;;13.62;4.65;;;;;;;14.88;34.53;101059.11;1576618;90;21524;-77
2021/10/10 11:32:25;;;;;;;10.00;4.03;;;;;;;14.94;34.29;101049.55;1582593;88;21092;-75
2021/10/10 11:35:00;;;;;;;12.55;4.22;;;;;;;14.99;33.88;101056.38;1579867;90;21063;-75
2021/10/10 11:37:31;;;;;;;;;;;;;;;15.06;33.68;101055.94;1577218;89;21052;-78
2021/10/10 11:40:10;;;;;;;9.35;3.27;;;;;;;15.13;33.91;101054.13;1558406;91;21660;-77
2021/10/10 11:42:41;;;;;;;15.80;5.47;;;;;;;15.20;33.99;101053.09;1603033;88;21565;-78
2021/10/10 11:45:13;;;;;;;7.00;3.70;;;;;;;15.26;33.90;101044.92;1584360;88;21084;-79
2021/10/10 11:47:53;;;;;;;11.60;3.87;;;;;;;15.36;33.46;101045.78;1593739;88;21069;-80
2021/10/10 11:50:29;;;;;;;4.08;3.25;;;;;;;15.45;33.51;101045.30;1596482;88;21521;-79